createdAt,value
2023-02-11T00:01:43.648Z,4.75
2023-02-11T00:04:12.670Z,4.65
2023-02-11T00:06:41.787Z,3.85
2023-02-11T00:09:12.494Z,4.05
2023-02-11T00:11:41.554Z,4.30
2023-02-11T00:14:14.217Z,2.05
2023-02-11T00:16:43.322Z,5.03
2023-02-11T00:19:12.396Z,4.43
2023-02-11T00:21:42.045Z,2.60
2023-02-11T00:24:11.062Z,4.20
2023-02-11T00:26:40.235Z,5.53
2023-02-11T00:29:09.322Z,3.75
2023-02-11T00:31:39.892Z,2.33
2023-02-11T00:34:09.127Z,4.03
2023-02-11T00:36:38.188Z,6.00
2023-02-11T00:39:07.940Z,2.00
2023-02-11T00:41:38.066Z,2.88
2023-02-11T00:44:07.202Z,2.42
2023-02-11T00:46:36.334Z,2.65
2023-02-11T00:49:06.872Z,2.17
2023-02-11T00:51:36.090Z,1.90
2023-02-11T00:58:25.480Z,2.63
2023-02-11T01:00:55.482Z,2.20
2023-02-11T01:03:24.886Z,1.58
2023-02-11T01:05:55.518Z,2.20
2023-02-11T01:08:24.648Z,2.17
2023-02-11T01:10:58.208Z,1.88
2023-02-11T01:13:27.596Z,3.00
2023-02-11T01:15:56.897Z,1.40
2023-02-11T01:18:26.716Z,2.35
2023-02-11T01:20:57.244Z,2.20
2023-02-11T01:23:26.497Z,3.00
2023-02-11T01:25:55.796Z,3.53
2023-02-11T01:28:27.687Z,3.42
2023-02-11T01:30:57.114Z,2.50
2023-02-11T01:33:26.239Z,1.23
2023-02-11T01:35:56.680Z,4.88
2023-02-11T01:38:27.685Z,3.23
2023-02-11T01:40:58.816Z,3.20
2023-02-11T01:43:29.676Z,1.77
2023-02-11T01:46:14.197Z,3.97
2023-02-11T01:48:45.683Z,3.78
2023-02-11T01:51:21.715Z,1.90
2023-02-11T01:54:09.536Z,3.55
2023-02-11T01:57:01.005Z,2.08
2023-02-11T02:02:04.207Z,2.40
2023-02-11T02:04:40.055Z,2.60
2023-02-11T02:07:18.301Z,1.45
2023-02-11T02:09:53.909Z,3.28
2023-02-11T02:12:23.024Z,4.03
2023-02-11T02:14:52.081Z,1.20
2023-02-11T02:17:30.258Z,2.33
2023-02-11T02:20:29.853Z,3.00
2023-02-11T02:23:22.856Z,1.42
2023-02-11T02:26:19.990Z,1.90
2023-02-11T02:29:23.224Z,3.70
2023-02-11T02:32:21.701Z,1.95
2023-02-11T02:34:55.406Z,1.95
2023-02-11T02:37:35.031Z,2.15
2023-02-11T02:40:10.389Z,2.63
2023-02-11T02:42:41.421Z,2.60
2023-02-11T02:45:13.303Z,2.75
2023-02-11T02:47:42.464Z,2.85
2023-02-11T02:50:14.880Z,1.25
2023-02-11T02:52:52.049Z,2.50
2023-02-11T02:55:38.063Z,1.13
2023-02-11T02:58:28.443Z,2.38
2023-02-11T03:01:04.948Z,2.65
2023-02-11T03:03:44.511Z,1.48
2023-02-11T03:06:18.893Z,2.33
2023-02-11T03:08:51.453Z,2.25
2023-02-11T03:11:21.743Z,0.73
2023-02-11T03:13:52.034Z,1.00
2023-02-11T03:16:25.094Z,3.40
2023-02-11T03:18:58.429Z,1.25
2023-02-11T03:21:30.526Z,2.65
2023-02-11T03:24:05.206Z,1.42
2023-02-11T03:26:40.140Z,1.88
2023-02-11T03:29:15.957Z,1.67
2023-02-11T03:31:55.849Z,1.92
2023-02-11T03:34:31.251Z,2.45
2023-02-11T03:37:08.841Z,1.42
2023-02-11T03:39:42.052Z,3.22
2023-02-11T03:42:14.044Z,2.22
2023-02-11T03:44:49.616Z,1.10
2023-02-11T03:47:22.808Z,2.47
2023-02-11T03:49:56.859Z,1.92
2023-02-11T03:52:28.262Z,1.40
2023-02-11T03:57:27.179Z,1.48
2023-02-11T03:59:57.904Z,0.93
2023-02-11T04:02:30.921Z,0.93
2023-02-11T04:05:00.170Z,3.22
2023-02-11T04:07:31.042Z,2.47
2023-02-11T04:10:00.232Z,1.80
2023-02-11T04:12:29.227Z,2.65
2023-02-11T04:14:58.258Z,3.85
2023-02-11T04:17:27.261Z,0.90
2023-02-11T04:19:56.251Z,1.90
2023-02-11T04:22:25.248Z,0.63
2023-02-11T04:29:14.873Z,1.30
2023-02-11T04:31:44.094Z,0.75
2023-02-11T04:34:13.377Z,0.98
2023-02-11T04:36:42.785Z,2.13
2023-02-11T04:39:11.837Z,2.45
2023-02-11T04:41:40.868Z,1.58
2023-02-11T04:44:09.901Z,2.00
2023-02-11T04:46:40.466Z,3.22
2023-02-11T04:49:09.494Z,5.13
2023-02-11T04:51:38.537Z,3.80
2023-02-11T04:54:07.608Z,3.58
2023-02-11T04:56:36.650Z,3.33
2023-02-11T04:59:06.240Z,3.70
2023-02-11T05:01:35.588Z,1.95
2023-02-11T05:04:06.238Z,4.13
2023-02-11T05:06:35.252Z,1.63
2023-02-11T05:09:04.244Z,2.80
2023-02-11T05:11:33.256Z,1.52
2023-02-11T05:14:02.292Z,1.77
2023-02-11T05:16:31.369Z,1.83
2023-02-11T05:19:00.815Z,2.25
2023-02-11T05:21:31.280Z,6.53
2023-02-11T05:24:00.304Z,4.33
2023-02-11T05:26:29.430Z,2.47
2023-02-11T05:28:58.542Z,2.53
2023-02-11T05:31:27.747Z,1.98
2023-02-11T05:33:56.926Z,4.60
2023-02-11T05:36:26.042Z,5.13
2023-02-11T05:38:56.482Z,2.60
2023-02-11T05:41:25.504Z,4.73
2023-02-11T05:43:54.547Z,3.10
2023-02-11T05:46:23.647Z,2.20
2023-02-11T05:48:52.898Z,2.80
2023-02-11T05:51:21.919Z,3.63
2023-02-11T05:53:50.984Z,2.92
2023-02-11T05:56:21.428Z,2.95
2023-02-11T05:58:50.645Z,2.10
2023-02-11T06:01:19.880Z,4.13
2023-02-11T06:03:50.154Z,3.60
2023-02-11T06:06:19.479Z,2.70
2023-02-11T06:08:48.610Z,4.72
2023-02-11T06:11:18.646Z,3.97
2023-02-11T06:13:49.103Z,5.50
2023-02-11T06:16:18.333Z,6.20
2023-02-11T06:18:47.422Z,1.80
2023-02-11T06:21:16.568Z,2.53
2023-02-11T06:23:45.692Z,6.30
2023-02-11T06:26:20.180Z,2.35
2023-02-11T06:28:51.330Z,2.60
2023-02-11T06:31:21.083Z,1.95
2023-02-11T06:33:50.566Z,3.88
2023-02-11T06:36:21.561Z,3.67
2023-02-11T06:38:51.403Z,5.68
2023-02-11T06:41:21.270Z,3.88
2023-02-11T06:43:53.448Z,1.75
2023-02-11T06:46:23.020Z,6.85
2023-02-11T06:48:52.055Z,5.18
2023-02-11T06:51:21.133Z,3.83
2023-02-11T06:53:50.545Z,4.28
2023-02-11T06:56:21.967Z,2.33
2023-02-11T06:58:55.495Z,4.22
2023-02-11T07:01:25.842Z,4.78
2023-02-11T07:03:55.438Z,6.47
2023-02-11T07:06:27.834Z,2.00
2023-02-11T07:08:57.760Z,6.57
2023-02-11T07:11:29.124Z,3.95
2023-02-11T07:16:31.000Z,3.22
2023-02-11T07:19:00.138Z,1.65
2023-02-11T07:21:29.246Z,3.33
2023-02-11T07:23:58.326Z,6.22
2023-02-11T07:26:27.393Z,3.70
2023-02-11T07:28:56.682Z,7.82
2023-02-11T07:31:28.917Z,3.10
2023-02-11T07:34:00.354Z,3.83
2023-02-11T07:38:58.961Z,3.42
2023-02-11T07:41:28.522Z,5.13
2023-02-11T07:44:00.653Z,3.47
2023-02-11T07:46:31.155Z,5.07
2023-02-11T07:49:00.458Z,4.68
2023-02-11T07:51:31.260Z,4.70
2023-02-11T07:54:01.524Z,5.90
2023-02-11T07:56:31.012Z,3.53
2023-02-11T07:59:03.246Z,6.95
2023-02-11T08:01:33.737Z,9.07
2023-02-11T08:04:03.391Z,3.40
2023-02-11T08:06:34.233Z,7.15
2023-02-11T08:09:07.016Z,5.18
2023-02-11T08:11:36.471Z,5.32
2023-02-11T08:14:05.582Z,8.05
2023-02-11T08:16:37.359Z,2.33
2023-02-11T08:19:08.700Z,5.53
2023-02-11T08:24:11.026Z,4.30
2023-02-11T08:26:40.198Z,7.80
2023-02-11T08:29:11.217Z,4.22
2023-02-11T08:31:43.585Z,7.50
2023-02-11T08:34:14.359Z,4.00
2023-02-11T08:36:45.025Z,5.45
2023-02-11T08:39:19.560Z,2.33
2023-02-11T08:41:50.042Z,9.65
2023-02-11T08:44:19.685Z,3.22
2023-02-11T08:46:50.864Z,11.43
2023-02-11T08:49:20.239Z,7.72
2023-02-11T08:51:50.118Z,7.65
2023-02-11T08:54:19.650Z,4.07
2023-02-11T08:56:54.048Z,6.38
2023-02-11T08:59:23.120Z,9.02
2023-02-11T09:01:53.718Z,6.20
2023-02-11T09:04:22.952Z,10.73
2023-02-11T09:06:52.028Z,6.28
2023-02-11T09:09:21.118Z,11.48
2023-02-11T09:11:50.164Z,5.95
2023-02-11T09:14:21.570Z,7.13
2023-02-11T09:16:51.311Z,8.45
2023-02-11T09:19:23.221Z,6.82
2023-02-11T09:21:52.350Z,4.53
2023-02-11T09:24:21.448Z,7.90
2023-02-11T09:26:50.825Z,8.48
2023-02-11T09:29:19.845Z,6.93
2023-02-11T09:31:49.927Z,10.48
2023-02-11T09:34:19.097Z,6.47
2023-02-11T09:36:49.634Z,6.15
2023-02-11T09:39:20.332Z,4.93
2023-02-11T09:42:10.887Z,7.88
2023-02-11T09:44:40.949Z,7.83
2023-02-11T09:47:26.868Z,4.63
2023-02-11T09:50:01.339Z,5.28
2023-02-11T09:52:41.344Z,6.63
2023-02-11T09:55:19.786Z,7.07
2023-02-11T09:57:50.053Z,6.00
2023-02-11T10:00:25.950Z,5.28
2023-02-11T10:03:32.577Z,6.55
2023-02-11T10:06:20.134Z,11.32
2023-02-11T10:09:00.614Z,4.80
2023-02-11T10:11:37.828Z,7.50
2023-02-11T10:14:20.472Z,14.70
2023-02-11T10:17:02.164Z,13.45
2023-02-11T10:19:47.346Z,10.07
2023-02-11T10:22:20.465Z,6.70
2023-02-11T10:24:55.178Z,10.13
2023-02-11T10:27:32.062Z,10.60
2023-02-11T10:30:05.465Z,10.73
2023-02-11T10:32:40.292Z,11.35
2023-02-11T10:35:17.996Z,10.77
2023-02-11T10:37:47.103Z,6.25
2023-02-11T10:40:20.866Z,9.10
2023-02-11T10:42:55.488Z,9.20
2023-02-11T10:45:31.683Z,8.65
2023-02-11T10:48:01.881Z,7.10
2023-02-11T10:50:34.941Z,11.00
2023-02-11T10:53:24.276Z,6.82
2023-02-11T10:55:58.160Z,10.18
2023-02-11T10:58:30.346Z,10.80
2023-02-11T11:01:01.512Z,16.23
2023-02-11T11:03:36.888Z,18.27
2023-02-11T11:06:09.212Z,12.10
2023-02-11T11:08:44.109Z,11.75
2023-02-11T11:11:17.083Z,8.48
2023-02-11T11:13:58.267Z,9.63
2023-02-11T11:16:29.655Z,10.73
2023-02-11T11:19:21.429Z,8.95
2023-02-11T11:21:52.036Z,6.20
2023-02-11T11:24:26.825Z,9.23
2023-02-11T11:27:01.697Z,10.10
2023-02-11T11:29:36.624Z,9.38
2023-02-11T11:32:12.714Z,8.60
2023-02-11T11:34:43.678Z,8.70
2023-02-11T11:37:15.609Z,8.45
2023-02-11T11:39:55.144Z,7.68
2023-02-11T11:42:29.723Z,13.80
2023-02-11T11:45:01.156Z,9.40
2023-02-11T11:47:42.602Z,13.45
2023-02-11T11:50:32.012Z,12.02
2023-02-11T11:53:05.743Z,10.27
2023-02-11T11:55:39.240Z,8.90
2023-02-11T11:58:16.552Z,9.85
2023-02-11T12:00:55.545Z,6.75
2023-02-11T12:04:01.435Z,9.63
2023-02-11T12:06:41.186Z,12.07
2023-02-11T12:09:21.358Z,10.85
2023-02-11T12:12:32.364Z,3.88
2023-02-11T12:15:14.960Z,8.48
2023-02-11T12:18:02.185Z,7.43
2023-02-11T12:20:44.770Z,7.05
2023-02-11T12:23:31.418Z,7.43
2023-02-11T12:26:11.377Z,5.90
2023-02-11T12:28:46.008Z,9.60
2023-02-11T12:31:27.382Z,7.30
2023-02-11T12:36:47.468Z,6.75
2023-02-11T12:39:27.175Z,5.85
2023-02-11T12:42:32.076Z,4.00
2023-02-11T12:45:20.976Z,7.47
2023-02-11T12:48:06.652Z,7.53
2023-02-11T12:50:44.164Z,7.70
2023-02-11T12:53:45.889Z,4.63
2023-02-11T12:58:51.547Z,7.72
2023-02-11T13:01:23.761Z,9.98
2023-02-11T13:04:00.354Z,6.07
2023-02-11T13:06:35.795Z,7.38
2023-02-11T13:09:07.393Z,9.13
2023-02-11T13:11:41.445Z,9.25
2023-02-11T13:14:17.829Z,7.20
2023-02-11T13:16:48.586Z,9.07
2023-02-11T13:19:27.755Z,11.45
2023-02-11T13:22:05.549Z,7.32
2023-02-11T13:24:42.535Z,10.07
2023-02-11T13:27:23.757Z,12.90
2023-02-11T13:30:34.672Z,6.93
2023-02-11T13:33:19.663Z,6.03
2023-02-11T13:36:17.109Z,7.82
2023-02-11T13:39:01.808Z,10.93
2023-02-11T13:41:34.055Z,4.93
2023-02-11T13:44:06.922Z,6.38
2023-02-11T13:47:00.030Z,11.32
2023-02-11T13:49:40.935Z,30.90
2023-02-11T13:52:25.969Z,45.03
2023-02-11T13:54:57.244Z,36.25
2023-02-11T14:00:02.805Z,22.08
2023-02-11T14:02:52.509Z,10.85
2023-02-11T14:05:46.524Z,12.55
2023-02-11T14:08:40.085Z,11.18
2023-02-11T14:11:14.796Z,13.30
2023-02-11T14:14:03.443Z,13.35
2023-02-11T14:16:38.293Z,5.15
2023-02-11T14:19:09.811Z,3.58
2023-02-11T14:21:40.958Z,8.55
2023-02-11T14:24:50.082Z,6.43
2023-02-11T14:27:43.331Z,2.65
2023-02-11T14:30:47.298Z,6.13
2023-02-11T14:33:57.030Z,8.07
2023-02-11T14:36:56.088Z,6.72
2023-02-11T14:39:38.721Z,1.92
2023-02-11T14:44:44.063Z,7.07
2023-02-11T14:47:19.896Z,6.03
2023-02-11T14:49:50.634Z,4.45
2023-02-11T14:52:27.605Z,5.75
2023-02-11T14:55:07.484Z,9.85
2023-02-11T14:57:38.046Z,6.72
2023-02-11T15:00:18.813Z,9.13
2023-02-11T15:02:48.286Z,6.82
2023-02-11T15:05:26.124Z,9.95
2023-02-11T15:07:57.183Z,10.55
2023-02-11T15:10:33.886Z,12.82
2023-02-11T15:13:05.776Z,10.02
2023-02-11T15:15:37.367Z,12.45
2023-02-11T15:18:07.077Z,10.18
2023-02-11T15:20:37.101Z,11.35
2023-02-11T15:23:10.518Z,19.02
2023-02-11T15:25:46.407Z,11.57
2023-02-11T15:28:22.996Z,10.30
2023-02-11T15:30:59.606Z,10.77
2023-02-11T15:33:30.254Z,17.20
2023-02-11T15:36:01.217Z,14.00
2023-02-11T15:38:30.991Z,14.02
2023-02-11T15:41:02.159Z,14.82
2023-02-11T15:43:46.406Z,15.45
2023-02-11T15:46:18.007Z,18.33
2023-02-11T15:48:49.945Z,16.42
2023-02-11T15:51:22.917Z,15.18
2023-02-11T15:53:56.979Z,12.73
2023-02-11T15:56:30.790Z,12.35
2023-02-11T15:59:10.811Z,21.77
2023-02-11T16:01:41.089Z,14.07
2023-02-11T16:04:18.091Z,15.60
2023-02-11T16:06:48.741Z,14.95
2023-02-11T16:09:31.643Z,17.52
2023-02-11T16:12:03.620Z,31.20
2023-02-11T16:14:37.165Z,59.05
2023-02-11T16:17:10.776Z,29.48
2023-02-11T16:19:46.395Z,13.15
2023-02-11T16:22:19.298Z,15.27
2023-02-11T16:24:51.178Z,11.48
2023-02-11T16:27:23.903Z,16.60
2023-02-11T16:29:54.863Z,11.07
2023-02-11T16:32:25.607Z,7.30
2023-02-11T16:34:57.988Z,7.55
2023-02-11T16:37:27.599Z,8.93
2023-02-11T16:39:57.167Z,12.32
2023-02-11T16:42:26.291Z,10.70
2023-02-11T16:44:56.859Z,6.80
2023-02-11T16:47:28.119Z,5.82
2023-02-11T16:52:27.601Z,11.23
2023-02-11T16:54:56.741Z,6.57
2023-02-11T16:57:29.991Z,28.05
2023-02-11T17:00:01.025Z,32.42
2023-02-11T17:02:32.226Z,16.48
2023-02-11T17:05:03.772Z,7.43
2023-02-11T17:07:32.967Z,4.10
2023-02-11T17:10:02.261Z,5.10
2023-02-11T17:12:31.676Z,7.35
2023-02-11T17:15:02.110Z,9.80
2023-02-11T17:17:31.131Z,10.90
2023-02-11T17:20:00.252Z,11.57
2023-02-11T17:22:29.329Z,56.85
2023-02-11T17:24:58.840Z,12.43
2023-02-11T17:27:27.928Z,12.07
2023-02-11T17:29:57.133Z,10.52
2023-02-11T17:32:27.549Z,12.13
2023-02-11T17:34:56.787Z,12.25
2023-02-11T17:37:25.916Z,17.63
2023-02-11T17:39:54.949Z,11.30
2023-02-11T17:42:24.001Z,14.00
2023-02-11T17:44:53.081Z,11.50
2023-02-11T17:47:22.102Z,13.02
2023-02-11T17:49:52.513Z,9.40
2023-02-11T17:52:21.692Z,8.23
2023-02-11T17:54:51.501Z,14.00
2023-02-11T17:57:20.542Z,11.88
2023-02-11T17:59:49.667Z,12.45
2023-02-11T18:02:19.461Z,11.43
2023-02-11T18:04:48.702Z,7.40
2023-02-11T18:07:19.984Z,12.93
2023-02-11T18:09:49.056Z,36.40
2023-02-11T18:12:25.125Z,84.65
2023-02-11T18:14:58.040Z,78.18
2023-02-11T18:17:27.382Z,28.10
2023-02-11T18:19:57.739Z,14.25
2023-02-11T18:22:28.198Z,5.80
2023-02-11T18:24:57.323Z,7.73
2023-02-11T18:27:28.168Z,9.23
2023-02-11T18:29:57.578Z,9.00
2023-02-11T18:32:26.739Z,10.90
2023-02-11T18:34:55.818Z,8.77
2023-02-11T18:37:25.441Z,8.48
2023-02-11T18:39:55.944Z,7.25
2023-02-11T18:42:25.010Z,5.60
2023-02-11T18:44:54.038Z,20.10
2023-02-11T18:47:24.173Z,18.45
2023-02-11T18:49:54.347Z,18.42
2023-02-11T18:52:23.570Z,9.50
2023-02-11T18:54:52.928Z,14.00
2023-02-11T18:57:23.464Z,19.88
2023-02-11T18:59:52.581Z,13.63
2023-02-11T19:02:21.781Z,9.85
2023-02-11T19:04:50.893Z,17.80
2023-02-11T19:07:20.069Z,14.10
2023-02-11T19:09:49.278Z,10.63
2023-02-11T19:12:18.384Z,10.02
2023-02-11T19:14:49.098Z,8.00
2023-02-11T19:17:18.363Z,10.10
2023-02-11T19:19:47.552Z,6.57
2023-02-11T19:22:18.956Z,4.85
2023-02-11T19:24:48.192Z,7.70
2023-02-11T19:27:17.368Z,8.60
2023-02-11T19:29:48.367Z,7.97
2023-02-11T19:32:17.999Z,6.72
2023-02-11T19:34:47.578Z,6.35
2023-02-11T19:37:16.758Z,4.55
2023-02-11T19:39:46.432Z,4.28
2023-02-11T19:42:22.565Z,4.35
2023-02-11T19:44:54.652Z,3.20
2023-02-11T19:47:27.942Z,3.47
2023-02-11T19:49:57.094Z,5.00
2023-02-11T19:52:26.509Z,5.43
2023-02-11T19:54:55.850Z,7.20
2023-02-11T19:57:25.264Z,3.53
2023-02-11T19:59:57.013Z,5.70
2023-02-11T20:02:26.305Z,8.38
2023-02-11T20:04:55.753Z,7.25
2023-02-11T20:07:25.071Z,9.20
2023-02-11T20:09:54.432Z,6.43
2023-02-11T20:12:23.523Z,8.13
2023-02-11T20:14:52.542Z,7.65
2023-02-11T20:17:23.160Z,9.35
2023-02-11T20:19:53.079Z,8.07
2023-02-11T20:22:22.304Z,6.10
2023-02-11T20:24:51.359Z,10.98
2023-02-11T20:27:20.440Z,8.30
2023-02-11T20:29:49.538Z,10.50
2023-02-11T20:32:18.677Z,13.43
2023-02-11T20:34:49.124Z,9.60
2023-02-11T20:37:18.753Z,12.57
2023-02-11T20:39:53.321Z,12.60
2023-02-11T20:42:22.492Z,13.73
2023-02-11T20:44:51.654Z,10.82
2023-02-11T20:47:20.847Z,13.85
2023-02-11T20:49:51.454Z,12.07
2023-02-11T20:52:20.488Z,12.77
2023-02-11T20:54:49.957Z,11.93
2023-02-11T20:57:19.214Z,39.17
2023-02-11T20:59:48.270Z,62.58
2023-02-11T21:02:17.416Z,55.50
2023-02-11T21:04:46.463Z,52.97
2023-02-11T21:07:16.902Z,43.25
2023-02-11T21:09:45.965Z,27.93
2023-02-11T21:12:15.099Z,30.33
2023-02-11T21:14:44.253Z,28.90
2023-02-11T21:17:13.491Z,28.58
2023-02-11T21:19:43.495Z,24.13
2023-02-11T21:22:12.576Z,23.35
2023-02-11T21:24:42.967Z,23.70
2023-02-11T21:27:12.289Z,23.27
2023-02-11T21:29:53.401Z,17.27
2023-02-11T21:32:23.638Z,11.85
2023-02-11T21:34:54.042Z,16.05
2023-02-11T21:37:23.903Z,10.43
2023-02-11T21:39:54.320Z,9.70
2023-02-11T21:42:23.380Z,16.43
2023-02-11T21:44:52.663Z,15.05
2023-02-11T21:47:21.677Z,10.63
2023-02-11T21:49:51.084Z,12.27
2023-02-11T21:52:20.173Z,13.98
2023-02-11T21:54:51.030Z,13.57
2023-02-11T21:57:21.561Z,14.82
2023-02-11T21:59:50.620Z,13.25
2023-02-11T22:02:19.764Z,17.70
2023-02-11T22:04:48.915Z,18.73
2023-02-11T22:07:18.466Z,17.50
2023-02-11T22:09:47.648Z,12.40
2023-02-11T22:12:16.754Z,10.25
2023-02-11T22:14:47.204Z,14.48
2023-02-11T22:17:16.347Z,41.17
2023-02-11T22:19:45.488Z,34.08
2023-02-11T22:22:18.256Z,27.95
2023-02-11T22:24:48.074Z,21.80
2023-02-11T22:27:20.275Z,22.98
2023-02-11T22:29:50.891Z,18.70
2023-02-11T22:32:20.107Z,18.17
2023-02-11T22:34:51.444Z,14.13
2023-02-11T22:37:22.343Z,15.13
2023-02-11T22:39:51.584Z,14.20
2023-02-11T22:42:20.740Z,15.18
2023-02-11T22:44:51.247Z,13.07
2023-02-11T22:47:20.295Z,13.27
2023-02-11T22:49:49.396Z,12.60
2023-02-11T22:52:18.412Z,14.40
2023-02-11T22:54:47.554Z,12.18
2023-02-11T22:57:16.540Z,11.30
2023-02-11T22:59:45.668Z,13.77
2023-02-11T23:02:16.300Z,16.15
2023-02-11T23:04:45.818Z,15.48
2023-02-11T23:07:16.125Z,17.60
2023-02-11T23:09:45.099Z,16.58
2023-02-11T23:12:14.152Z,18.08
2023-02-11T23:14:43.755Z,14.30
2023-02-11T23:17:12.765Z,15.43
2023-02-11T23:19:43.206Z,11.70
2023-02-11T23:22:12.449Z,8.23
2023-02-11T23:24:41.474Z,8.45
2023-02-11T23:27:10.507Z,7.68
2023-02-11T23:29:39.562Z,13.00
2023-02-11T23:32:08.614Z,8.07
2023-02-11T23:34:37.847Z,7.70
2023-02-11T23:37:11.304Z,8.45
2023-02-11T23:39:40.322Z,8.35
2023-02-11T23:42:09.400Z,9.18
2023-02-11T23:44:38.541Z,8.77
2023-02-11T23:47:07.562Z,7.43
2023-02-11T23:49:36.591Z,6.93
2023-02-11T23:52:07.024Z,7.63
2023-02-11T23:54:36.171Z,8.63
2023-02-11T23:57:05.364Z,6.80
2023-02-11T23:59:34.386Z,7.95
